createdAt,value
2023-05-24T00:00:43.249Z,9.71
2023-05-24T00:03:30.988Z,9.66
2023-05-24T00:06:17.053Z,9.46
2023-05-24T00:09:02.327Z,9.59
2023-05-24T00:11:47.297Z,9.54
2023-05-24T00:14:32.248Z,9.49
2023-05-24T00:17:17.313Z,9.43
2023-05-24T00:20:02.662Z,9.37
2023-05-24T00:22:48.582Z,9.17
2023-05-24T00:25:33.450Z,9.30
2023-05-24T00:28:18.648Z,9.27
2023-05-24T00:31:03.992Z,9.15
2023-05-24T00:33:49.210Z,9.20
2023-05-24T00:36:34.520Z,9.17
2023-05-24T00:39:19.763Z,8.90
2023-05-24T00:42:05.182Z,9.13
2023-05-24T00:44:50.261Z,9.12
2023-05-24T00:47:35.993Z,9.13
2023-05-24T00:50:22.311Z,8.98
2023-05-24T00:53:09.498Z,9.03
2023-05-24T00:55:55.268Z,8.98
2023-05-24T00:58:40.544Z,8.92
2023-05-24T01:01:26.148Z,9.06
2023-05-24T01:04:12.460Z,9.09
2023-05-24T01:07:05.626Z,9.09
2023-05-24T01:10:02.172Z,9.11
2023-05-24T01:13:08.380Z,9.12
2023-05-24T01:16:07.876Z,9.05
2023-05-24T01:18:56.779Z,9.15
2023-05-24T01:22:13.654Z,9.16
2023-05-24T01:25:29.131Z,9.12
2023-05-24T01:28:17.544Z,9.22
2023-05-24T01:31:03.997Z,9.28
2023-05-24T01:33:49.488Z,9.28
2023-05-24T01:36:34.477Z,9.36
2023-05-24T01:39:20.809Z,9.35
2023-05-24T01:42:32.788Z,9.34
2023-05-24T01:45:26.634Z,9.26
2023-05-24T01:48:33.475Z,9.35
2023-05-24T01:51:22.435Z,9.24
2023-05-24T01:54:08.161Z,9.30
2023-05-24T01:56:55.106Z,9.22
2023-05-24T01:59:43.349Z,9.09
2023-05-24T02:02:29.050Z,9.33
2023-05-24T02:05:14.141Z,9.32
2023-05-24T02:07:59.199Z,9.30
2023-05-24T02:10:44.488Z,9.10
2023-05-24T02:13:29.620Z,9.37
2023-05-24T02:16:15.009Z,9.36
2023-05-24T02:18:59.949Z,9.32
2023-05-24T02:21:45.200Z,9.33
2023-05-24T02:24:30.077Z,9.41
2023-05-24T02:27:15.290Z,9.32
2023-05-24T02:30:00.351Z,9.37
2023-05-24T02:32:45.264Z,9.47
2023-05-24T02:35:30.287Z,9.43
2023-05-24T02:38:15.424Z,9.28
2023-05-24T02:41:00.641Z,9.33
2023-05-24T02:43:46.944Z,9.28
2023-05-24T02:46:32.134Z,9.23
2023-05-24T02:49:17.426Z,9.18
2023-05-24T02:52:02.400Z,9.20
2023-05-24T02:54:47.762Z,9.21
2023-05-24T02:57:34.151Z,9.21
2023-05-24T03:00:20.014Z,9.06
2023-05-24T03:03:04.982Z,9.18
2023-05-24T03:05:50.274Z,9.19
2023-05-24T03:08:37.365Z,9.18
2023-05-24T03:11:23.931Z,9.13
2023-05-24T03:14:10.948Z,9.08
2023-05-24T03:16:56.074Z,9.04
2023-05-24T03:19:42.051Z,8.98
2023-05-24T03:22:27.347Z,9.00
2023-05-24T03:25:12.532Z,8.99
2023-05-24T03:27:57.614Z,8.85
2023-05-24T03:30:42.631Z,8.95
2023-05-24T03:33:27.912Z,8.94
2023-05-24T03:36:13.042Z,8.69
2023-05-24T03:38:59.062Z,8.75
2023-05-24T03:41:44.280Z,8.76
2023-05-24T03:44:29.458Z,8.78
2023-05-24T03:47:14.811Z,8.75
2023-05-24T03:49:59.946Z,8.69
2023-05-24T03:52:44.865Z,8.71
2023-05-24T03:55:29.923Z,8.64
2023-05-24T03:58:14.833Z,8.62
2023-05-24T04:01:01.022Z,8.64
2023-05-24T04:03:47.284Z,8.61
2023-05-24T04:06:32.625Z,8.57
2023-05-24T04:09:17.690Z,8.49
2023-05-24T04:12:02.527Z,8.57
2023-05-24T04:14:47.546Z,8.40
2023-05-24T04:17:35.047Z,8.39
2023-05-24T04:20:22.679Z,8.53
2023-05-24T04:23:07.692Z,8.50
2023-05-24T04:25:52.551Z,8.50
2023-05-24T04:28:41.081Z,8.32
2023-05-24T04:31:29.470Z,8.45
2023-05-24T04:34:14.862Z,8.46
2023-05-24T04:37:00.544Z,8.46
2023-05-24T04:39:45.884Z,8.45
2023-05-24T04:42:31.809Z,8.49
2023-05-24T04:45:17.038Z,8.53
2023-05-24T04:48:02.223Z,8.54
2023-05-24T04:50:47.939Z,8.53
2023-05-24T04:53:33.183Z,8.51
2023-05-24T04:56:19.661Z,8.51
2023-05-24T04:59:06.222Z,8.59
2023-05-24T05:01:51.547Z,8.52
2023-05-24T05:04:36.848Z,8.68
2023-05-24T05:07:22.402Z,8.70
2023-05-24T05:10:08.251Z,8.70
2023-05-24T05:12:53.778Z,8.69
2023-05-24T05:15:40.490Z,8.77
2023-05-24T05:18:26.861Z,8.82
2023-05-24T05:21:11.976Z,8.84
2023-05-24T05:23:57.189Z,8.81
2023-05-24T05:26:42.620Z,8.88
2023-05-24T05:29:27.564Z,8.87
2023-05-24T05:32:12.700Z,8.94
2023-05-24T05:34:57.821Z,9.00
2023-05-24T05:37:42.723Z,8.98
2023-05-24T05:40:27.692Z,9.17
2023-05-24T05:43:12.646Z,9.30
2023-05-24T05:45:57.903Z,9.27
2023-05-24T05:48:45.034Z,9.50
2023-05-24T05:51:31.980Z,9.59
2023-05-24T05:54:18.397Z,9.69
2023-05-24T05:57:03.529Z,9.81
2023-05-24T05:59:48.749Z,9.90
2023-05-24T06:02:33.853Z,10.06
2023-05-24T06:05:19.448Z,10.18
2023-05-24T06:08:04.849Z,10.27
2023-05-24T06:10:51.996Z,10.36
2023-05-24T06:13:37.745Z,10.47
2023-05-24T06:16:25.959Z,10.51
2023-05-24T06:19:11.049Z,10.66
2023-05-24T06:21:56.073Z,10.78
2023-05-24T06:24:41.316Z,10.84
2023-05-24T06:27:26.496Z,10.99
2023-05-24T06:30:12.926Z,11.04
2023-05-24T06:32:57.877Z,11.26
2023-05-24T06:35:43.396Z,11.36
2023-05-24T06:38:28.595Z,11.52
2023-05-24T06:41:13.785Z,11.64
2023-05-24T06:43:59.546Z,11.73
2023-05-24T06:46:44.630Z,11.93
2023-05-24T06:49:30.287Z,12.03
2023-05-24T06:52:15.592Z,12.04
2023-05-24T06:55:01.360Z,12.33
2023-05-24T06:57:46.635Z,12.46
2023-05-24T07:00:32.147Z,12.64
2023-05-24T07:03:17.288Z,12.79
2023-05-24T07:06:02.255Z,12.65
2023-05-24T07:08:47.302Z,13.01
2023-05-24T07:11:32.462Z,13.14
2023-05-24T07:14:17.599Z,13.02
2023-05-24T07:17:02.714Z,13.21
2023-05-24T07:19:47.842Z,13.27
2023-05-24T07:22:32.874Z,13.43
2023-05-24T07:25:17.811Z,13.49
2023-05-24T07:28:03.254Z,13.59
2023-05-24T07:30:48.885Z,13.73
2023-05-24T07:33:36.682Z,13.86
2023-05-24T07:36:21.913Z,13.85
2023-05-24T07:39:09.887Z,13.94
2023-05-24T07:41:55.152Z,14.03
2023-05-24T07:44:40.664Z,14.01
2023-05-24T07:47:26.212Z,14.19
2023-05-24T07:50:11.907Z,14.46
2023-05-24T07:52:57.162Z,14.65
2023-05-24T07:55:42.691Z,14.75
2023-05-24T07:58:28.278Z,14.89
2023-05-24T08:01:14.413Z,15.08
2023-05-24T08:03:59.527Z,15.07
2023-05-24T08:06:46.821Z,15.27
2023-05-24T08:09:36.447Z,15.35
2023-05-24T08:12:21.716Z,15.30
2023-05-24T08:15:07.330Z,15.44
2023-05-24T08:17:52.469Z,15.47
2023-05-24T08:20:38.935Z,15.76
2023-05-24T08:23:24.295Z,15.94
2023-05-24T08:26:09.310Z,15.96
2023-05-24T08:28:54.849Z,16.02
2023-05-24T08:31:39.976Z,16.03
2023-05-24T08:34:25.662Z,16.11
2023-05-24T08:37:12.210Z,16.34
2023-05-24T08:39:59.170Z,16.30
2023-05-24T08:42:46.061Z,16.47
2023-05-24T08:45:32.723Z,16.53
2023-05-24T08:48:19.247Z,16.64
2023-05-24T08:51:05.094Z,16.74
2023-05-24T08:53:50.924Z,16.83
2023-05-24T08:56:37.511Z,16.84
2023-05-24T08:59:25.105Z,17.02
2023-05-24T09:02:14.985Z,17.05
2023-05-24T09:05:00.234Z,17.07
2023-05-24T09:07:46.226Z,17.17
2023-05-24T09:10:45.186Z,17.31
2023-05-24T09:13:39.468Z,17.58
2023-05-24T09:16:24.911Z,17.46
2023-05-24T09:19:10.105Z,17.35
2023-05-24T09:21:56.802Z,17.64
2023-05-24T09:24:43.205Z,17.89
2023-05-24T09:27:28.498Z,17.89
2023-05-24T09:30:15.527Z,17.98
2023-05-24T09:33:01.937Z,18.02
2023-05-24T09:35:49.101Z,18.12
2023-05-24T09:38:36.074Z,18.10
2023-05-24T09:41:24.303Z,18.30
2023-05-24T09:44:14.735Z,18.58
2023-05-24T09:47:06.653Z,18.69
2023-05-24T09:49:52.324Z,18.77
2023-05-24T09:52:38.248Z,18.83
2023-05-24T09:55:24.091Z,18.77
2023-05-24T09:58:09.678Z,18.81
2023-05-24T10:01:05.111Z,18.95
2023-05-24T10:03:59.292Z,18.98
2023-05-24T10:06:44.479Z,19.20
2023-05-24T10:09:34.069Z,19.39
2023-05-24T10:12:23.136Z,19.39
2023-05-24T10:15:10.770Z,19.57
2023-05-24T10:17:57.117Z,19.65
2023-05-24T10:20:43.052Z,19.53
2023-05-24T10:23:30.938Z,19.83
2023-05-24T10:26:16.417Z,20.04
2023-05-24T10:29:08.114Z,20.23
2023-05-24T10:31:53.918Z,20.33
2023-05-24T10:34:39.799Z,20.53
2023-05-24T10:37:26.396Z,20.66
2023-05-24T10:40:25.166Z,20.72
2023-05-24T10:43:10.676Z,20.78
2023-05-24T10:45:56.551Z,20.83
2023-05-24T10:48:42.319Z,20.76
2023-05-24T10:51:40.681Z,20.99
2023-05-24T10:54:27.234Z,21.33
2023-05-24T10:57:12.311Z,21.50
2023-05-24T10:59:58.432Z,21.46
2023-05-24T11:02:43.663Z,21.76
2023-05-24T11:05:47.990Z,21.78
2023-05-24T11:08:37.935Z,21.80
2023-05-24T11:11:30.314Z,21.99
2023-05-24T11:14:25.104Z,21.96
2023-05-24T11:17:10.657Z,22.09
2023-05-24T11:19:56.544Z,22.10
2023-05-24T11:22:42.160Z,22.17
2023-05-24T11:25:27.565Z,22.21
2023-05-24T11:28:13.236Z,22.54
2023-05-24T11:31:09.419Z,22.65
2023-05-24T11:33:54.595Z,22.94
2023-05-24T11:36:41.061Z,22.96
2023-05-24T11:39:37.567Z,23.08
2023-05-24T11:42:23.578Z,23.19
2023-05-24T11:45:10.392Z,23.27
2023-05-24T11:47:56.182Z,23.42
2023-05-24T11:53:32.175Z,23.47
2023-05-24T11:56:17.201Z,23.56
2023-05-24T11:59:16.108Z,23.65
2023-05-24T12:02:03.608Z,23.76
2023-05-24T12:04:48.939Z,24.10
2023-05-24T12:07:34.314Z,24.44
2023-05-24T12:10:20.914Z,24.51
2023-05-24T12:13:22.460Z,24.56
2023-05-24T12:16:08.086Z,24.75
2023-05-24T12:19:05.188Z,24.83
2023-05-24T12:21:59.216Z,24.99
2023-05-24T12:24:44.477Z,25.20
2023-05-24T12:27:31.441Z,25.46
2023-05-24T12:30:21.261Z,24.79
2023-05-24T12:33:06.953Z,24.89
2023-05-24T12:35:53.400Z,25.04
2023-05-24T12:38:38.660Z,25.42
2023-05-24T12:41:23.586Z,25.60
2023-05-24T12:44:10.508Z,25.73
2023-05-24T12:46:57.251Z,24.93
2023-05-24T12:49:43.352Z,24.95
2023-05-24T12:52:28.465Z,25.32
2023-05-24T12:55:16.963Z,25.79
2023-05-24T12:58:03.372Z,26.26
2023-05-24T13:00:50.343Z,26.72
2023-05-24T13:03:35.737Z,26.90
2023-05-24T13:06:20.878Z,26.64
2023-05-24T13:09:06.455Z,27.00
2023-05-24T13:11:52.437Z,27.19
2023-05-24T13:14:37.870Z,27.44
2023-05-24T13:17:23.016Z,27.35
2023-05-24T13:20:11.112Z,27.29
2023-05-24T13:22:56.560Z,26.39
2023-05-24T13:25:41.558Z,26.60
2023-05-24T13:28:27.976Z,27.19
2023-05-24T13:31:14.505Z,27.22
2023-05-24T13:34:00.145Z,27.56
2023-05-24T13:36:45.919Z,28.04
2023-05-24T13:39:30.838Z,28.05
2023-05-24T13:42:16.510Z,27.03
2023-05-24T13:45:03.466Z,26.97
2023-05-24T13:47:48.676Z,26.92
2023-05-24T13:50:35.757Z,26.46
2023-05-24T13:53:22.555Z,27.45
2023-05-24T13:56:07.417Z,27.68
2023-05-24T13:58:53.401Z,27.89
2023-05-24T14:01:39.142Z,27.10
2023-05-24T14:04:24.599Z,26.21
2023-05-24T14:07:13.463Z,25.74
2023-05-24T14:09:58.637Z,26.96
2023-05-24T14:12:43.680Z,27.56
2023-05-24T14:15:30.014Z,28.03
2023-05-24T14:18:15.266Z,28.65
2023-05-24T14:21:00.906Z,28.35
2023-05-24T14:23:45.721Z,28.08
2023-05-24T14:26:32.194Z,27.95
2023-05-24T14:29:17.421Z,27.03
2023-05-24T14:32:02.410Z,27.09
2023-05-24T14:34:47.805Z,28.21
2023-05-24T14:37:32.705Z,27.63
2023-05-24T14:40:19.959Z,27.74
2023-05-24T14:43:07.167Z,28.86
2023-05-24T14:45:52.340Z,28.58
2023-05-24T14:48:37.513Z,27.65
2023-05-24T14:51:23.089Z,27.16
2023-05-24T14:54:11.223Z,27.42
2023-05-24T14:56:56.688Z,27.75
2023-05-24T14:59:41.550Z,28.74
2023-05-24T15:02:26.954Z,29.06
2023-05-24T15:05:11.967Z,29.33
2023-05-24T15:07:57.251Z,29.36
2023-05-24T15:10:45.304Z,29.43
2023-05-24T15:13:31.300Z,29.78
2023-05-24T15:16:18.332Z,30.01
2023-05-24T15:19:04.549Z,30.06
2023-05-24T15:21:49.723Z,29.50
2023-05-24T15:24:37.796Z,29.61
2023-05-24T15:27:23.127Z,29.85
2023-05-24T15:30:08.326Z,29.93
2023-05-24T15:32:53.950Z,29.15
2023-05-24T15:35:39.188Z,29.27
2023-05-24T15:38:24.844Z,28.11
2023-05-24T15:41:10.350Z,27.31
2023-05-24T15:43:55.617Z,26.82
2023-05-24T15:46:41.152Z,26.43
2023-05-24T15:49:26.300Z,26.05
2023-05-24T15:52:11.476Z,25.91
2023-05-24T15:54:56.591Z,26.07
2023-05-24T15:57:41.727Z,26.67
2023-05-24T16:00:27.076Z,27.05
2023-05-24T16:03:15.449Z,26.76
2023-05-24T16:06:00.954Z,26.74
2023-05-24T16:08:46.201Z,26.28
2023-05-24T16:11:31.390Z,25.90
2023-05-24T16:14:16.928Z,25.79
2023-05-24T16:17:06.201Z,25.71
2023-05-24T16:19:51.145Z,25.65
2023-05-24T16:22:36.780Z,25.78
2023-05-24T16:25:21.942Z,25.61
2023-05-24T16:28:07.133Z,25.21
2023-05-24T16:30:55.521Z,25.10
2023-05-24T16:33:40.709Z,25.03
2023-05-24T16:36:27.047Z,25.11
2023-05-24T16:39:12.172Z,25.21
2023-05-24T16:41:58.209Z,24.97
2023-05-24T16:44:44.772Z,24.92
2023-05-24T16:47:30.138Z,24.56
2023-05-24T16:50:15.640Z,24.52
2023-05-24T16:53:00.876Z,24.30
2023-05-24T16:55:45.948Z,23.92
2023-05-24T16:58:31.528Z,23.81
2023-05-24T17:01:16.554Z,23.84
2023-05-24T17:04:01.870Z,23.74
2023-05-24T17:06:47.385Z,23.67
2023-05-24T17:09:32.595Z,23.56
2023-05-24T17:12:18.279Z,23.53
2023-05-24T17:15:05.184Z,23.42
2023-05-24T17:17:51.751Z,23.40
2023-05-24T17:20:36.744Z,23.37
2023-05-24T17:23:21.853Z,23.18
2023-05-24T17:26:11.148Z,22.87
2023-05-24T17:28:56.389Z,22.84
2023-05-24T17:31:41.663Z,22.77
2023-05-24T17:34:27.140Z,22.69
2023-05-24T17:37:12.429Z,22.38
2023-05-24T17:39:57.710Z,22.48
2023-05-24T17:42:43.199Z,22.48
2023-05-24T17:45:28.570Z,22.35
2023-05-24T17:48:13.765Z,22.45
2023-05-24T17:51:01.125Z,22.49
2023-05-24T17:53:46.992Z,22.32
2023-05-24T17:56:32.044Z,22.10
2023-05-24T17:59:17.646Z,21.87
2023-05-24T18:02:02.798Z,21.51
2023-05-24T18:04:47.701Z,21.57
2023-05-24T18:07:33.372Z,21.47
2023-05-24T18:10:19.240Z,21.36
2023-05-24T18:13:07.751Z,21.15
2023-05-24T18:15:53.058Z,21.09
2023-05-24T18:18:38.578Z,21.05
2023-05-24T18:21:23.949Z,20.97
2023-05-24T18:24:09.092Z,20.87
2023-05-24T18:26:53.980Z,20.86
2023-05-24T18:29:39.186Z,20.74
2023-05-24T18:32:24.614Z,20.76
2023-05-24T18:35:12.095Z,20.76
2023-05-24T18:37:57.593Z,20.58
2023-05-24T18:40:42.881Z,20.40
2023-05-24T18:43:27.844Z,20.32
2023-05-24T18:46:14.618Z,20.25
2023-05-24T18:49:01.768Z,20.05
2023-05-24T18:51:46.960Z,19.94
2023-05-24T18:54:31.843Z,19.74
2023-05-24T18:57:17.205Z,19.74
2023-05-24T19:00:02.057Z,19.76
2023-05-24T19:02:47.053Z,19.60
2023-05-24T19:05:32.336Z,19.57
2023-05-24T19:08:17.991Z,19.53
2023-05-24T19:11:03.249Z,19.42
2023-05-24T19:13:48.415Z,19.24
2023-05-24T19:16:33.353Z,19.12
2023-05-24T19:19:18.272Z,19.05
2023-05-24T19:22:03.422Z,19.02
2023-05-24T19:24:48.498Z,18.90
2023-05-24T19:27:34.960Z,18.84
2023-05-24T19:30:21.702Z,18.63
2023-05-24T19:33:07.400Z,18.42
2023-05-24T19:35:52.665Z,18.43
2023-05-24T19:38:37.852Z,18.27
2023-05-24T19:41:22.938Z,18.14
2023-05-24T19:44:08.397Z,18.02
2023-05-24T19:46:53.569Z,17.89
2023-05-24T19:49:38.400Z,17.83
2023-05-24T19:52:23.310Z,17.73
2023-05-24T19:55:09.539Z,17.70
2023-05-24T19:57:54.670Z,17.51
2023-05-24T20:00:39.475Z,17.44
2023-05-24T20:03:25.085Z,17.37
2023-05-24T20:06:10.084Z,17.24
2023-05-24T20:08:57.720Z,17.13
2023-05-24T20:11:42.850Z,17.12
2023-05-24T20:14:31.263Z,17.05
2023-05-24T20:17:16.854Z,16.99
2023-05-24T20:20:02.492Z,16.72
2023-05-24T20:22:47.783Z,16.72
2023-05-24T20:25:33.191Z,16.62
2023-05-24T20:28:29.553Z,16.62
2023-05-24T20:31:17.123Z,16.57
2023-05-24T20:34:02.297Z,16.51
2023-05-24T20:36:47.711Z,16.42
2023-05-24T20:39:33.320Z,16.22
2023-05-24T20:42:18.416Z,16.30
2023-05-24T20:45:04.139Z,16.22
2023-05-24T20:47:49.024Z,16.24
2023-05-24T20:50:34.004Z,15.98
2023-05-24T20:53:19.028Z,16.10
2023-05-24T20:56:04.497Z,15.98
2023-05-24T20:58:54.104Z,15.81
2023-05-24T21:01:39.032Z,15.78
2023-05-24T21:04:24.361Z,15.62
2023-05-24T21:07:09.255Z,15.78
2023-05-24T21:09:54.231Z,15.65
2023-05-24T21:12:39.483Z,15.62
2023-05-24T21:15:24.950Z,15.65
2023-05-24T21:18:10.291Z,15.61
2023-05-24T21:20:55.114Z,15.53
2023-05-24T21:23:40.059Z,15.48
2023-05-24T21:26:26.507Z,15.32
2023-05-24T21:29:13.167Z,15.22
2023-05-24T21:31:58.418Z,15.33
2023-05-24T21:34:43.835Z,15.34
2023-05-24T21:37:28.752Z,15.32
2023-05-24T21:40:13.839Z,15.24
2023-05-24T21:42:58.742Z,15.23
2023-05-24T21:45:43.883Z,15.16
2023-05-24T21:48:29.047Z,15.08
2023-05-24T21:51:15.514Z,15.06
2023-05-24T21:54:00.887Z,14.99
2023-05-24T21:56:46.775Z,14.88
2023-05-24T21:59:31.737Z,14.85
2023-05-24T22:02:16.681Z,14.85
2023-05-24T22:05:01.716Z,14.78
2023-05-24T22:07:46.623Z,14.64
2023-05-24T22:10:31.461Z,14.70
2023-05-24T22:13:16.407Z,14.71
2023-05-24T22:16:02.012Z,14.49
2023-05-24T22:18:48.000Z,14.54
2023-05-24T22:21:33.581Z,14.48
2023-05-24T22:24:18.528Z,14.42
2023-05-24T22:27:04.333Z,14.28
2023-05-24T22:29:49.641Z,14.35
2023-05-24T22:32:34.729Z,14.33
2023-05-24T22:35:19.631Z,14.26
2023-05-24T22:38:04.742Z,14.15
2023-05-24T22:40:57.466Z,14.13
2023-05-24T22:43:42.391Z,14.01
2023-05-24T22:46:27.530Z,14.00
2023-05-24T22:49:13.371Z,13.96
2023-05-24T22:51:58.729Z,13.95
2023-05-24T22:54:43.831Z,13.78
2023-05-24T22:57:29.240Z,13.89
2023-05-24T23:00:15.436Z,13.80
2023-05-24T23:03:00.814Z,13.89
2023-05-24T23:05:46.115Z,13.79
2023-05-24T23:08:32.203Z,13.80
2023-05-24T23:11:17.890Z,13.73
2023-05-24T23:14:03.003Z,13.73
2023-05-24T23:16:47.817Z,13.68
2023-05-24T23:19:33.130Z,13.49
2023-05-24T23:22:23.696Z,13.58
2023-05-24T23:25:09.945Z,13.41
2023-05-24T23:27:55.155Z,13.45
2023-05-24T23:30:40.353Z,13.42
2023-05-24T23:33:25.566Z,13.38
2023-05-24T23:36:10.919Z,13.33
2023-05-24T23:38:56.098Z,13.14
2023-05-24T23:41:41.050Z,13.27
2023-05-24T23:44:26.335Z,13.18
2023-05-24T23:47:11.491Z,13.11
2023-05-24T23:49:56.698Z,12.98
2023-05-24T23:52:41.805Z,12.98
2023-05-24T23:55:27.040Z,13.02
2023-05-24T23:58:12.167Z,12.95
